Time;durP1;ratioP1;P1;durP2;ratioP2;P2;SDS_P1;SDS_P2;PMS_P1;PMS_P2;Temp;Humidity;BMP_temperature;BMP_pressure;BME280_temperature;BME280_humidity;BME280_pressure;Samples;Min_cycle;Max_cycle;Signal;HPM_P1;HPM_P2
2022/08/05 00:01:19;;;;;;;6.72;2.53;;;18.90;99.90;;;;;;5137184;27;20049;-85
2022/08/05 00:03:50;;;;;;;9.02;2.58;;;18.90;99.90;;;;;;5137077;27;20045;-86
2022/08/05 00:06:16;;;;;;;6.28;2.10;;;18.80;99.90;;;;;;5136937;27;20039;-86
2022/08/05 00:08:42;;;;;;;3.58;1.88;;;18.80;99.90;;;;;;5137243;27;20479;-86
2022/08/05 00:11:10;;;;;;;6.22;2.17;;;18.90;99.90;;;;;;5120223;27;20092;-84
2022/08/05 00:13:38;;;;;;;7.78;2.38;;;18.90;99.90;;;;;;5136674;27;20395;-86
2022/08/05 00:16:05;;;;;;;8.30;2.42;;;18.90;99.90;;;;;;5136742;27;20043;-85
2022/08/05 00:18:31;;;;;;;6.70;1.85;;;18.90;99.90;;;;;;5154869;27;20427;-86
2022/08/05 00:20:57;;;;;;;9.23;2.60;;;18.90;99.90;;;;;;5119520;27;20134;-85
2022/08/05 00:23:23;;;;;;;8.45;2.50;;;18.80;99.90;;;;;;5119688;27;20054;-84
2022/08/05 00:25:49;;;;;;;6.03;2.33;;;18.70;99.90;;;;;;5136960;27;20046;-85
2022/08/05 00:28:15;;;;;;;7.00;2.20;;;18.70;99.90;;;;;;5155086;27;20354;-85
2022/08/05 00:30:41;;;;;;;7.15;2.10;;;18.70;99.90;;;;;;5136768;27;20054;-85
2022/08/05 00:33:08;;;;;;;9.55;2.33;;;18.70;99.90;;;;;;5136327;27;20038;-84
2022/08/05 00:35:34;;;;;;;7.47;2.25;;;18.70;99.90;;;;;;5154739;27;20053;-85
2022/08/05 00:38:00;;;;;;;6.38;2.30;;;18.70;99.90;;;;;;5136331;27;20138;-85
2022/08/05 00:40:26;;;;;;;7.18;2.25;;;18.60;99.90;;;;;;5136098;27;20133;-85
2022/08/05 00:42:53;;;;;;;6.35;2.42;;;18.60;99.90;;;;;;5136451;27;20043;-85
2022/08/05 00:45:19;;;;;;;7.60;2.20;;;18.60;99.90;;;;;;5154562;27;20042;-85
2022/08/05 00:47:44;;;;;;;5.57;2.17;;;18.70;99.90;;;;;;5118494;27;20524;-85
2022/08/05 00:50:10;;;;;;;7.57;2.38;;;18.60;99.90;;;;;;5154743;27;20048;-85
2022/08/05 00:52:36;;;;;;;6.40;2.30;;;18.60;99.90;;;;;;5136136;27;20476;-85
2022/08/05 00:55:03;;;;;;;7.35;2.28;;;18.60;99.90;;;;;;5154798;27;20183;-85
2022/08/05 00:57:29;;;;;;;8.95;2.40;;;18.60;99.90;;;;;;5154430;27;20051;-85
2022/08/05 00:59:54;;;;;;;4.85;2.15;;;18.60;99.90;;;;;;5135891;27;20143;-85
2022/08/05 01:02:20;;;;;;;5.75;2.30;;;18.60;99.90;;;;;;5118923;27;20494;-85
2022/08/05 01:04:46;;;;;;;6.57;1.90;;;18.60;99.90;;;;;;5136117;27;20043;-86
2022/08/05 01:07:11;;;;;;;6.35;2.30;;;18.60;99.90;;;;;;5154465;27;20074;-85
2022/08/05 01:09:37;;;;;;;6.95;2.67;;;18.60;99.90;;;;;;5136259;27;20051;-85
2022/08/05 01:12:07;;;;;;;6.07;2.10;;;18.50;99.90;;;;;;5136203;27;20069;-85
2022/08/05 01:14:37;;;;;;;6.72;2.03;;;18.60;99.90;;;;;;5154422;27;20092;-85
2022/08/05 01:17:07;;;;;;;8.70;2.60;;;18.60;99.90;;;;;;5118633;27;20107;-85
2022/08/05 01:19:33;;;;;;;6.03;1.90;;;18.60;99.90;;;;;;5118272;27;20057;-85
2022/08/05 01:22:24;;;;;;;8.40;2.33;;;18.60;99.90;;;;;;5119011;27;20043;-85
2022/08/05 01:25:28;;;;;;;7.95;3.08;;;18.50;99.90;;;;;;5136263;27;20100;-85
2022/08/05 01:27:53;;;;;;;8.27;2.97;;;18.50;99.90;;;;;;5136406;27;20096;-85
2022/08/05 01:30:20;;;;;;;7.97;2.78;;;18.40;99.90;;;;;;5136211;27;20218;-84
2022/08/05 01:32:48;;;;;;;5.65;2.13;;;18.40;99.90;;;;;;5136432;27;20046;-85
2022/08/05 01:35:16;;;;;;;6.22;2.22;;;18.40;99.90;;;;;;5118970;27;20047;-85
2022/08/05 01:37:48;;;;;;;5.28;2.15;;;18.40;99.90;;;;;;5154030;27;20051;-85
2022/08/05 01:40:16;;;;;;;6.00;2.35;;;18.40;99.90;;;;;;5153834;27;20058;-86
2022/08/05 01:42:44;;;;;;;7.10;2.47;;;18.30;99.90;;;;;;5119232;27;20137;-86
2022/08/05 01:45:11;;;;;;;7.60;2.97;;;18.40;99.90;;;;;;5136159;27;20050;-85
2022/08/05 01:47:38;;;;;;;6.50;2.40;;;18.40;99.90;;;;;;5134839;27;20038;-86
2022/08/05 01:50:09;;;;;;;7.57;2.83;;;18.40;99.90;;;;;;5137601;27;20129;-85
2022/08/05 01:52:37;;;;;;;6.03;2.97;;;18.40;99.90;;;;;;5158045;27;20050;-85
2022/08/05 01:55:07;;;;;;;5.47;3.13;;;18.40;99.90;;;;;;5157864;27;20054;-85
2022/08/05 01:57:39;;;;;;;11.47;2.53;;;18.30;99.90;;;;;;5140116;27;20062;-86
2022/08/05 02:00:08;;;;;;;7.38;2.80;;;18.30;99.90;;;;;;5122310;27;20637;-86
2022/08/05 02:02:38;;;;;;;9.00;3.08;;;18.30;99.90;;;;;;5140052;27;20390;-85
2022/08/05 02:05:07;;;;;;;10.25;2.78;;;18.30;99.90;;;;;;5138547;27;20558;-84
2022/08/05 02:07:33;;;;;;;7.95;3.00;;;18.20;99.90;;;;;;5138907;27;20555;-85
2022/08/05 02:09:59;;;;;;;5.75;3.13;;;18.30;99.90;;;;;;5139438;27;20399;-86
2022/08/05 02:12:45;;;;;;;5.13;2.42;;;18.20;99.90;;;;;;5139256;27;20053;-86
2022/08/05 02:15:33;;;;;;;7.57;2.33;;;18.20;99.90;;;;;;5139214;27;20506;-86
2022/08/05 02:18:22;;;;;;;6.68;2.55;;;18.10;99.90;;;;;;5157829;27;20046;-86
2022/08/05 02:20:52;;;;;;;8.70;2.60;;;18.10;99.90;;;;;;5139315;27;20082;-85
2022/08/05 02:23:21;;;;;;;;;;;18.10;99.90;;;;;;5139901;27;20399;-85
2022/08/05 02:25:50;;;;;;;8.90;2.90;;;18.10;99.90;;;;;;5139248;27;19983;-84
2022/08/05 02:28:25;;;;;;;9.02;3.03;;;18.10;99.90;;;;;;5157549;27;20415;-85
2022/08/05 02:31:05;;;;;;;9.27;2.85;;;18.10;99.90;;;;;;5138735;27;20121;-84
2022/08/05 02:33:38;;;;;;;9.68;3.40;;;18.10;99.90;;;;;;5121633;27;20050;-86
2022/08/05 02:36:07;;;;;;;7.57;2.85;;;18.00;99.90;;;;;;5121499;27;20053;-84
2022/08/05 02:38:34;;;;;;;10.98;2.95;;;18.10;99.90;;;;;;5121684;27;20130;-83
2022/08/05 02:41:02;;;;;;;6.60;2.97;;;18.10;99.90;;;;;;5157141;27;20046;-85
2022/08/05 02:43:29;;;;;;;4.18;2.65;;;18.10;99.90;;;;;;5138971;27;20468;-86
2022/08/05 02:45:56;;;;;;;7.50;2.42;;;18.10;99.90;;;;;;5138606;27;20126;-85
2022/08/05 02:48:24;;;;;;;6.82;2.58;;;18.10;99.90;;;;;;5156802;27;20043;-85
2022/08/05 02:50:51;;;;;;;5.05;2.55;;;18.00;99.90;;;;;;5138480;27;20047;-84
2022/08/05 02:53:19;;;;;;;6.47;2.45;;;18.00;99.90;;;;;;5156703;27;20057;-85
2022/08/05 02:55:49;;;;;;;6.90;2.92;;;18.00;99.90;;;;;;5139068;27;20046;-85
2022/08/05 02:58:16;;;;;;;8.70;2.80;;;18.00;99.90;;;;;;5156741;27;20482;-84
2022/08/05 03:00:44;;;;;;;5.20;2.40;;;17.90;99.90;;;;;;5120402;27;20038;-85
2022/08/05 03:03:13;;;;;;;6.72;2.60;;;18.00;99.90;;;;;;5138420;27;20097;-84
2022/08/05 03:05:40;;;;;;;9.88;2.75;;;17.90;99.90;;;;;;5156490;27;20057;-85
2022/08/05 03:08:06;;;;;;;9.65;2.88;;;18.00;99.90;;;;;;5137907;27;20039;-85
2022/08/05 03:10:31;;;;;;;10.20;2.72;;;18.00;99.90;;;;;;5156152;27;20510;-85
2022/08/05 03:12:57;;;;;;;5.60;2.30;;;17.90;99.90;;;;;;5120931;27;20065;-84
2022/08/05 03:15:23;;;;;;;5.57;2.50;;;17.90;99.90;;;;;;5138222;27;20050;-85
2022/08/05 03:17:48;;;;;;;6.15;2.45;;;17.90;99.90;;;;;;5138350;27;20065;-85
2022/08/05 03:20:14;;;;;;;4.78;2.53;;;17.90;99.90;;;;;;5137715;27;20383;-85
2022/08/05 03:22:40;;;;;;;9.73;2.83;;;17.90;99.90;;;;;;5137949;27;20057;-85
2022/08/05 03:25:07;;;;;;;7.90;2.35;;;17.80;99.90;;;;;;5156158;27;20388;-84
2022/08/05 03:27:32;;;;;;;10.10;2.85;;;17.90;99.90;;;;;;5137627;27;20145;-85
2022/08/05 03:29:58;;;;;;;7.05;2.95;;;17.80;99.90;;;;;;5137878;27;20130;-85
2022/08/05 03:32:24;;;;;;;9.40;2.88;;;17.80;99.90;;;;;;5120892;27;20039;-85
2022/08/05 03:34:51;;;;;;;7.22;2.45;;;17.80;99.90;;;;;;5156091;27;20054;-84
2022/08/05 03:37:19;;;;;;;6.65;2.30;;;17.80;99.90;;;;;;5137364;27;20495;-85
2022/08/05 03:39:53;;;;;;;7.47;2.85;;;17.80;99.90;;;;;;5155612;27;20089;-84
2022/08/05 03:42:19;;;;;;;5.60;2.70;;;17.70;99.90;;;;;;5137393;27;20055;-86
2022/08/05 03:44:44;;;;;;;10.35;3.17;;;17.70;99.90;;;;;;5137218;27;20046;-84
2022/08/05 03:47:10;;;;;;;6.68;3.10;;;17.70;99.90;;;;;;5155392;27;20125;-84
2022/08/05 03:49:35;;;;;;;8.13;2.80;;;17.60;99.90;;;;;;5155717;27;20386;-85
2022/08/05 03:52:04;;;;;;;5.57;2.60;;;17.50;99.90;;;;;;5155772;27;20099;-85
2022/08/05 03:54:51;;;;;;;5.93;2.42;;;17.60;99.90;;;;;;5136842;27;20054;-85
2022/08/05 03:57:23;;;;;;;8.75;2.65;;;17.60;99.90;;;;;;5137436;27;20070;-85
2022/08/05 03:59:54;;;;;;;10.32;3.05;;;17.50;99.90;;;;;;5136711;27;20046;-86
2022/08/05 04:02:24;;;;;;;7.97;2.88;;;17.50;99.90;;;;;;5137011;27;20058;-85
2022/08/05 04:04:51;;;;;;;7.15;3.17;;;17.50;99.90;;;;;;5136774;27;20054;-84
2022/08/05 04:07:17;;;;;;;7.05;3.60;;;17.50;99.90;;;;;;5136357;27;20047;-85
2022/08/05 04:09:42;;;;;;;8.85;2.95;;;17.50;99.90;;;;;;5119629;27;20065;-85
2022/08/05 04:12:08;;;;;;;7.07;2.92;;;17.50;99.90;;;;;;5136702;27;20059;-85
2022/08/05 04:14:35;;;;;;;8.38;3.30;;;17.50;99.90;;;;;;5154935;27;20058;-86
2022/08/05 04:17:01;;;;;;;7.13;2.83;;;17.50;99.90;;;;;;5136711;27;20115;-86
2022/08/05 04:19:28;;;;;;;7.30;3.38;;;17.50;99.90;;;;;;5135986;27;20046;-87
2022/08/05 04:21:53;;;;;;;8.45;3.30;;;17.50;99.90;;;;;;5154804;27;20476;-85
2022/08/05 04:24:19;;;;;;;8.18;3.20;;;17.40;99.90;;;;;;5136861;27;20050;-86
2022/08/05 04:26:45;;;;;;;9.48;3.40;;;17.40;99.90;;;;;;5136085;27;20086;-85
2022/08/05 04:29:10;;;;;;;5.93;3.50;;;17.50;99.90;;;;;;5136473;27;20047;-85
2022/08/05 04:31:37;;;;;;;7.50;3.25;;;17.40;99.90;;;;;;5154753;27;20431;-84
2022/08/05 04:34:03;;;;;;;7.60;3.33;;;17.40;99.90;;;;;;5154796;27;20130;-85
2022/08/05 04:36:28;;;;;;;10.23;3.58;;;17.40;99.90;;;;;;5154984;27;20452;-85
2022/08/05 04:38:54;;;;;;;7.45;3.60;;;17.40;99.90;;;;;;5135568;27;20137;-85
2022/08/05 04:41:20;;;;;;;6.63;3.10;;;17.30;99.90;;;;;;5136820;27;20086;-85
2022/08/05 04:43:45;;;;;;;9.90;3.20;;;17.40;99.90;;;;;;5154907;27;20046;-84
2022/08/05 04:46:11;;;;;;;9.68;4.00;;;17.40;99.90;;;;;;5136065;27;20042;-85
2022/08/05 04:48:37;;;;;;;9.02;3.10;;;17.40;99.90;;;;;;5155269;27;20042;-84
2022/08/05 04:51:02;;;;;;;8.25;3.30;;;17.50;99.90;;;;;;5136242;27;20047;-85
2022/08/05 04:53:28;;;;;;;5.63;3.40;;;17.40;99.90;;;;;;5155162;27;20055;-86
2022/08/05 04:55:54;;;;;;;6.45;3.38;;;17.40;99.90;;;;;;5136399;27;20475;-85
2022/08/05 04:58:19;;;;;;;4.97;3.60;;;17.40;99.90;;;;;;5136942;27;20060;-84
2022/08/05 05:00:45;;;;;;;7.63;2.88;;;17.40;99.90;;;;;;5154852;27;20078;-86
2022/08/05 05:03:11;;;;;;;6.97;3.40;;;17.40;99.90;;;;;;5136062;27;20498;-86
2022/08/05 05:05:37;;;;;;;9.18;3.47;;;17.40;99.90;;;;;;5136651;27;20082;-84
2022/08/05 05:08:05;;;;;;;7.45;3.22;;;17.50;99.90;;;;;;5136262;27;20054;-85
2022/08/05 05:10:32;;;;;;;10.38;3.38;;;17.50;99.90;;;;;;5154579;27;20050;-87
2022/08/05 05:12:57;;;;;;;10.18;3.97;;;17.50;99.90;;;;;;5136632;27;20043;-85
2022/08/05 05:15:25;;;;;;;4.65;2.22;;;17.50;99.90;;;;;;5154723;27;20076;-87
2022/08/05 05:17:50;;;;;;;8.57;3.92;;;17.50;99.90;;;;;;5136473;27;20134;-84
2022/08/05 05:20:16;;;;;;;7.43;3.40;;;17.50;99.90;;;;;;5154508;27;20133;-85
2022/08/05 05:22:42;;;;;;;10.02;4.10;;;17.50;99.90;;;;;;5136246;27;20042;-84
2022/08/05 05:25:08;;;;;;;5.80;3.13;;;17.50;99.90;;;;;;5155953;27;20107;-86
2022/08/05 05:27:35;;;;;;;8.85;3.60;;;17.50;99.90;;;;;;5123587;27;20086;-86
2022/08/05 05:30:01;;;;;;;7.13;3.70;;;17.30;99.90;;;;;;5140611;27;20042;-85
2022/08/05 05:32:26;;;;;;;8.60;4.07;;;17.50;99.90;;;;;;5158949;27;20133;-86
2022/08/05 05:34:52;;;;;;;6.50;3.50;;;17.40;99.90;;;;;;5140231;27;20096;-86
2022/08/05 05:37:18;;;;;;;7.97;3.22;;;17.50;99.90;;;;;;5140590;27;20143;-86
2022/08/05 05:39:43;;;;;;;9.68;3.63;;;17.40;99.90;;;;;;5140561;27;20038;-85
2022/08/05 05:42:09;;;;;;;6.68;3.25;;;17.40;99.90;;;;;;5158640;27;20384;-87
2022/08/05 05:44:35;;;;;;;10.23;3.78;;;17.40;99.90;;;;;;5140418;27;20131;-87
2022/08/05 05:47:01;;;;;;;8.73;3.60;;;17.30;99.90;;;;;;5139972;27;20065;-86
2022/08/05 05:49:27;;;;;;;6.18;3.13;;;17.40;99.90;;;;;;5140516;27;20050;-87
2022/08/05 05:51:54;;;;;;;7.15;3.55;;;17.30;99.90;;;;;;5122509;27;20046;-87
2022/08/05 05:54:20;;;;;;;9.60;3.80;;;17.30;99.90;;;;;;5140419;27;20059;-86
2022/08/05 05:56:46;;;;;;;6.60;3.63;;;17.20;99.90;;;;;;5140088;27;20054;-87
2022/08/05 05:59:11;;;;;;;8.68;3.67;;;17.20;99.90;;;;;;5139861;27;20372;-86
2022/08/05 06:01:39;;;;;;;5.97;3.78;;;17.20;99.90;;;;;;5139428;27;20096;-85
2022/08/05 06:04:14;;;;;;;8.93;3.70;;;17.20;99.90;;;;;;5139519;27;20129;-86
2022/08/05 06:06:50;;;;;;;12.73;3.90;;;17.30;99.90;;;;;;5157828;27;20502;-87
2022/08/05 06:09:16;;;;;;;5.55;3.00;;;17.40;99.90;;;;;;5122705;27;20055;-87
2022/08/05 06:11:41;;;;;;;8.63;3.63;;;17.50;99.90;;;;;;5140041;27;20130;-87
2022/08/05 06:14:07;;;;;;;8.88;3.45;;;17.50;99.90;;;;;;5122210;27;20050;-86
2022/08/05 06:16:33;;;;;;;7.78;3.08;;;17.60;99.90;;;;;;5139961;27;20057;-87
2022/08/05 06:18:59;;;;;;;8.80;3.55;;;17.60;99.90;;;;;;5139757;27;20122;-87
2022/08/05 06:21:24;;;;;;;7.63;3.78;;;17.70;99.90;;;;;;5139820;27;20421;-86
2022/08/05 06:23:50;;;;;;;6.28;3.35;;;17.60;99.90;;;;;;5139758;27;20043;-87
2022/08/05 06:26:17;;;;;;;8.07;3.88;;;17.50;99.90;;;;;;5121694;27;20046;-86
2022/08/05 06:28:42;;;;;;;5.97;3.63;;;17.60;99.90;;;;;;5139651;27;20051;-86
2022/08/05 06:31:08;;;;;;;6.13;4.18;;;17.50;99.90;;;;;;5122024;27;20065;-86
2022/08/05 06:33:33;;;;;;;6.80;3.78;;;17.40;99.90;;;;;;5139425;27;20490;-87
2022/08/05 06:35:59;;;;;;;12.57;4.10;;;17.40;99.90;;;;;;5138548;27;20498;-87
2022/08/05 06:38:25;;;;;;;8.68;3.88;;;17.50;99.90;;;;;;5121569;27;20043;-87
2022/08/05 06:40:50;;;;;;;9.13;3.83;;;17.50;99.90;;;;;;5139243;27;20046;-86
2022/08/05 06:43:16;;;;;;;5.95;3.72;;;17.50;99.90;;;;;;5138377;27;20055;-86
2022/08/05 06:45:42;;;;;;;6.93;3.72;;;17.60;99.90;;;;;;5121604;27;20391;-87
2022/08/05 06:48:08;;;;;;;7.95;3.10;;;17.70;99.90;;;;;;5121752;27;20103;-86
2022/08/05 06:50:33;;;;;;;7.28;3.13;;;17.70;99.90;;;;;;5156866;27;20090;-85
2022/08/05 06:52:59;;;;;;;8.48;3.60;;;17.80;99.90;;;;;;5138553;27;20100;-86
2022/08/05 06:55:25;;;;;;;8.23;3.50;;;17.90;99.90;;;;;;5156438;27;20479;-85
2022/08/05 06:57:50;;;;;;;7.20;3.65;;;18.00;99.90;;;;;;5157023;27;20084;-87
2022/08/05 07:00:17;;;;;;;6.63;3.50;;;18.20;99.90;;;;;;5120465;27;20035;-85
2022/08/05 07:02:44;;;;;;;7.93;3.20;;;18.40;99.90;;;;;;5138551;27;20471;-85
2022/08/05 07:05:10;;;;;;;6.57;3.05;;;18.60;99.90;;;;;;5137651;27;20509;-86
2022/08/05 07:07:37;;;;;;;7.03;2.75;;;18.80;99.90;;;;;;5121374;27;20046;-88
2022/08/05 07:10:03;;;;;;;7.63;2.80;;;19.10;99.90;;;;;;5137970;27;20122;-85
2022/08/05 07:17:57;;;;;;;9.57;2.20;;;19.30;99.90;;;;;;5138078;27;20054;-85
2022/08/05 07:20:23;;;;;;;3.97;2.30;;;19.40;99.90;;;;;;5138072;27;20054;-85
2022/08/05 07:22:48;;;;;;;6.13;1.65;;;19.60;99.90;;;;;;5137792;27;20086;-86
2022/08/05 07:25:14;;;;;;;4.88;1.50;;;19.70;99.90;;;;;;5120835;27;20055;-85
2022/08/05 07:27:40;;;;;;;5.32;1.58;;;20.00;99.90;;;;;;5138134;27;20046;-85
2022/08/05 07:30:06;;;;;;;3.38;1.30;;;20.40;99.90;;;;;;5137465;27;20054;-85
2022/08/05 07:32:38;;;;;;;3.38;1.30;;;20.70;99.90;;;;;;5137738;27;20099;-86
2022/08/05 07:35:11;;;;;;;3.28;1.20;;;21.10;99.90;;;;;;5137522;27;20047;-86
2022/08/05 07:37:37;;;;;;;3.78;1.40;;;21.40;99.90;;;;;;5137792;27;20081;-84
2022/08/05 07:40:05;;;;;;;3.92;1.02;;;21.70;99.90;;;;;;5155706;27;20131;-82
2022/08/05 07:42:31;;;;;;;2.80;0.93;;;22.00;99.90;;;;;;5120370;27;20046;-86
2022/08/05 07:44:57;;;;;;;5.07;1.00;;;22.30;99.90;;;;;;5120416;27;20050;-86
2022/08/05 07:47:22;;;;;;;4.07;0.98;;;22.50;99.90;;;;;;5132867;27;20449;-87
2022/08/05 07:49:51;;;;;;;2.17;0.75;;;22.70;99.90;;;;;;5116631;27;20054;-83
2022/08/05 07:52:17;;;;;;;4.03;0.90;;;22.80;99.90;;;;;;5134985;27;20202;-85
2022/08/05 07:54:43;;;;;;;4.78;1.17;;;22.70;99.90;;;;;;5116780;27;20059;-85
2022/08/05 07:57:09;;;;;;;1.40;0.73;;;22.70;99.90;;;;;;5133896;27;20096;-84
2022/08/05 07:59:35;;;;;;;4.13;0.90;;;22.70;99.90;;;;;;5133454;27;20049;-83
2022/08/05 08:02:01;;;;;;;2.45;1.05;;;22.70;99.90;;;;;;5116522;27;20134;-83
2022/08/05 08:04:27;;;;;;;6.63;1.00;;;22.70;99.90;;;;;;5135766;27;20111;-87
2022/08/05 08:06:54;;;;;;;4.15;0.93;;;22.60;99.90;;;;;;5132745;27;20039;-88
2022/08/05 08:09:20;;;;;;;1.90;0.70;;;22.50;99.90;;;;;;5133982;27;20058;-86
2022/08/05 08:11:45;;;;;;;2.03;0.75;;;22.50;99.90;;;;;;5133965;27;20047;-85
2022/08/05 08:14:11;;;;;;;2.67;0.57;;;22.40;99.90;;;;;;5134760;27;20051;-85
2022/08/05 08:16:36;;;;;;;2.30;0.70;;;22.40;99.90;;;;;;5134931;27;20082;-84
2022/08/05 08:19:02;;;;;;;2.95;1.05;;;22.30;99.90;;;;;;5116814;27;20043;-82
2022/08/05 08:21:28;;;;;;;3.30;0.60;;;22.30;99.90;;;;;;5135208;27;20163;-87
2022/08/05 08:24:12;;;;;;;4.60;0.70;;;22.30;99.90;;;;;;5133548;27;20039;-84
2022/08/05 08:26:39;;;;;;;3.05;0.88;;;22.40;99.90;;;;;;5134592;27;20042;-85
2022/08/05 08:29:04;;;;;;;2.70;0.77;;;22.60;99.90;;;;;;5133489;27;20059;-84
2022/08/05 08:31:30;;;;;;;5.03;0.98;;;22.80;99.90;;;;;;5134442;27;20361;-83
2022/08/05 08:33:56;;;;;;;2.63;1.35;;;22.80;99.90;;;;;;5133211;27;20108;-87
2022/08/05 08:36:24;;;;;;;4.10;1.15;;;22.70;99.90;;;;;;5133650;27;20376;-85
2022/08/05 08:38:53;;;;;;;6.15;1.33;;;22.70;99.90;;;;;;5133699;27;20058;-86
2022/08/05 08:41:24;;;;;;;4.00;1.00;;;22.80;99.90;;;;;;5116457;27;20057;-84
2022/08/05 08:43:51;;;;;;;5.00;0.68;;;22.80;99.90;;;;;;5134269;27;20108;-84
2022/08/05 08:46:18;;;;;;;3.20;0.90;;;22.80;99.90;;;;;;5133042;27;20039;-84
2022/08/05 08:48:47;;;;;;;3.22;0.98;;;22.80;99.90;;;;;;5132172;27;20050;-84
2022/08/05 08:51:14;;;;;;;2.70;1.02;;;22.90;99.90;;;;;;5134424;27;20047;-85
2022/08/05 08:53:40;;;;;;;3.92;1.00;;;22.90;99.90;;;;;;5133547;27;20134;-85
2022/08/05 08:56:06;;;;;;;3.22;1.00;;;23.20;99.90;;;;;;5133598;27;20043;-85
2022/08/05 08:58:32;;;;;;;1.98;0.70;;;23.20;99.90;;;;;;5132870;27;20112;-82
2022/08/05 09:00:57;;;;;;;2.55;0.60;;;23.20;99.90;;;;;;5134372;27;20468;-87
2022/08/05 09:03:24;;;;;;;1.10;0.40;;;23.90;97.60;;;;;;5133921;28;20051;-82
2022/08/05 09:05:49;;;;;;;1.88;0.50;;;24.50;90.10;;;;;;5134105;27;20126;-82
2022/08/05 09:08:16;;;;;;;1.50;0.52;;;24.60;87.30;;;;;;5134474;27;20089;-84
2022/08/05 09:10:43;;;;;;;2.58;0.70;;;25.40;81.30;;;;;;5133011;28;20058;-82
2022/08/05 09:13:13;;;;;;;2.90;0.77;;;26.20;74.00;;;;;;5154232;27;20372;-84
2022/08/05 09:15:39;;;;;;;3.17;0.70;;;26.20;69.70;;;;;;5154510;27;20396;-86
2022/08/05 09:18:08;;;;;;;4.25;0.90;;;26.10;70.60;;;;;;5119403;27;20049;-83
2022/08/05 09:20:35;;;;;;;2.38;1.00;;;26.00;69.90;;;;;;5136468;27;20053;-86
2022/08/05 09:23:10;;;;;;;1.67;0.55;;;26.20;69.10;;;;;;5136362;27;20084;-85
2022/08/05 09:25:44;;;;;;;2.38;0.45;;;26.50;61.30;;;;;;5136122;27;20043;-82
2022/08/05 09:28:18;;;;;;;3.30;0.80;;;26.20;59.40;;;;;;5118939;27;20055;-83
2022/08/05 09:30:55;;;;;;;1.10;0.50;;;25.70;62.60;;;;;;5154215;27;20047;-82
2022/08/05 09:33:22;;;;;;;1.38;0.63;;;25.10;65.70;;;;;;5136216;27;20043;-82
2022/08/05 09:35:58;;;;;;;1.80;0.77;;;24.80;70.10;;;;;;5118606;27;20050;-85
2022/08/05 09:38:24;;;;;;;2.10;0.50;;;25.00;70.80;;;;;;5136003;27;20043;-86
2022/08/05 09:40:50;;;;;;;0.88;0.40;;;25.60;70.70;;;;;;5153868;27;20054;-86
2022/08/05 09:43:29;;;;;;;2.25;0.50;;;26.50;62.50;;;;;;5135644;27;20420;-84
2022/08/05 09:45:55;;;;;;;4.47;0.60;;;27.40;58.20;;;;;;5135561;27;20133;-81
2022/08/05 09:48:27;;;;;;;1.42;0.40;;;28.40;53.90;;;;;;5135558;27;20126;-81
2022/08/05 09:51:04;;;;;;;3.85;0.68;;;28.50;51.60;;;;;;5154166;27;20107;-85
2022/08/05 09:53:49;;;;;;;1.95;0.57;;;27.80;53.20;;;;;;5135804;27;20199;-79
2022/08/05 09:56:25;;;;;;;2.85;0.65;;;27.40;53.30;;;;;;5153894;27;20047;-85
2022/08/05 09:59:04;;;;;;;2.25;0.52;;;26.50;55.00;;;;;;5154211;27;20042;-83
2022/08/05 10:01:35;;;;;;;2.35;0.50;;;26.50;54.90;;;;;;5135737;27;20086;-82
2022/08/05 10:04:12;;;;;;;1.40;0.50;;;27.70;53.50;;;;;;5154329;27;20392;-89
2022/08/05 10:06:56;;;;;;;2.50;0.85;;;28.90;52.00;;;;;;5135976;27;20440;-85
2022/08/05 10:09:22;;;;;;;4.10;1.10;;;29.30;52.40;;;;;;5136236;27;20055;-82
2022/08/05 10:11:49;;;;;;;2.92;0.57;;;29.80;51.40;;;;;;5156167;27;20526;-85
2022/08/05 10:14:40;;;;;;;3.80;0.50;;;30.60;48.40;;;;;;5139397;27;20061;-82
2022/08/05 10:17:13;;;;;;;2.28;0.55;;;30.70;47.10;;;;;;5157178;27;20484;-82
2022/08/05 10:19:40;;;;;;;2.15;0.40;;;30.80;46.50;;;;;;5139576;27;20061;-85
2022/08/05 10:22:07;;;;;;;4.38;0.70;;;31.00;47.20;;;;;;5157696;27;20047;-80
2022/08/05 10:24:33;;;;;;;1.98;0.50;;;31.40;46.40;;;;;;5121834;27;20117;-84
2022/08/05 10:26:59;;;;;;;3.60;0.70;;;31.30;45.60;;;;;;5121848;27;20054;-81
2022/08/05 10:29:28;;;;;;;1.70;0.52;;;31.00;45.10;;;;;;5121884;27;20115;-80
2022/08/05 10:31:54;;;;;;;1.77;0.50;;;30.80;44.70;;;;;;5157274;27;20053;-82
2022/08/05 10:34:20;;;;;;;1.00;0.30;;;30.90;44.00;;;;;;5139267;27;20058;-83
2022/08/05 10:36:46;;;;;;;1.92;0.40;;;30.90;44.30;;;;;;5138360;27;20058;-84
2022/08/05 10:39:23;;;;;;;3.10;0.80;;;30.70;44.50;;;;;;5121152;27;20038;-82
2022/08/05 10:42:06;;;;;;;1.63;0.40;;;31.30;43.30;;;;;;5138869;27;20053;-84
2022/08/05 10:44:33;;;;;;;3.70;0.40;;;31.60;42.80;;;;;;5157499;27;20396;-85
2022/08/05 10:47:09;;;;;;;2.17;0.40;;;31.50;43.90;;;;;;5138320;27;20128;-83
2022/08/05 10:49:59;;;;;;;2.95;0.50;;;31.20;42.40;;;;;;5157177;27;20042;-82
2022/08/05 10:52:51;;;;;;;1.45;0.55;;;29.80;42.30;;;;;;5157100;27;20045;-84
2022/08/05 10:55:17;;;;;;;2.05;0.50;;;29.40;43.90;;;;;;5157143;27;20081;-85
2022/08/05 10:57:44;;;;;;;1.45;0.43;;;30.00;44.10;;;;;;5156826;27;20051;-85
2022/08/05 11:00:15;;;;;;;1.70;0.40;;;30.50;43.50;;;;;;5138446;27;20391;-82
2022/08/05 11:03:02;;;;;;;2.58;0.30;;;30.90;42.60;;;;;;5138481;27;20047;-84
2022/08/05 11:05:28;;;;;;;1.23;0.38;;;31.20;39.20;;;;;;5137955;27;20509;-86
2022/08/05 11:08:01;;;;;;;1.67;0.52;;;31.30;39.20;;;;;;5120533;27;20050;-82
2022/08/05 11:10:28;;;;;;;1.35;0.40;;;31.20;39.10;;;;;;5156450;27;20450;-83
2022/08/05 11:12:55;;;;;;;2.95;0.55;;;31.50;39.20;;;;;;5156348;27;20046;-81
2022/08/05 11:15:26;;;;;;;1.90;0.45;;;32.00;38.60;;;;;;5138518;27;20055;-81
2022/08/05 11:17:53;;;;;;;0.98;0.40;;;32.20;37.90;;;;;;5155986;27;20089;-82
2022/08/05 11:20:38;;;;;;;2.80;0.63;;;32.10;36.70;;;;;;5156403;27;20043;-84
2022/08/05 11:23:33;;;;;;;0.77;0.20;;;32.00;36.90;;;;;;5156444;27;20050;-84
2022/08/05 11:26:21;;;;;;;2.53;0.30;;;32.00;36.20;;;;;;5137775;27;20395;-81
2022/08/05 11:28:52;;;;;;;1.20;0.30;;;32.10;37.20;;;;;;5120778;27;20051;-81
2022/08/05 11:31:19;;;;;;;1.65;0.68;;;32.00;36.30;;;;;;5156281;27;20055;-82
2022/08/05 11:33:45;;;;;;;2.65;0.50;;;31.90;37.10;;;;;;5156125;27;20050;-84
2022/08/05 11:36:12;;;;;;;1.58;0.30;;;32.00;37.50;;;;;;5137446;27;20411;-83
2022/08/05 11:38:38;;;;;;;2.83;0.30;;;31.30;36.70;;;;;;5137893;27;20133;-84
2022/08/05 11:41:05;;;;;;;2.38;0.30;;;30.00;38.70;;;;;;5120400;27;20125;-84
2022/08/05 11:43:32;;;;;;;0.50;0.22;;;29.10;39.40;;;;;;5156092;27;20082;-83
2022/08/05 11:45:58;;;;;;;1.67;0.40;;;28.40;39.40;;;;;;5155842;27;20450;-84
2022/08/05 11:48:25;;;;;;;1.55;0.30;;;27.60;40.60;;;;;;5137608;27;20050;-84
2022/08/05 11:50:52;;;;;;;1.60;0.30;;;26.80;42.20;;;;;;5137364;27;20038;-83
2022/08/05 11:53:18;;;;;;;0.90;0.35;;;26.40;41.80;;;;;;5155566;27;20115;-82
2022/08/05 11:55:58;;;;;;;3.42;0.40;;;25.90;42.20;;;;;;5155206;27;20050;-84
2022/08/05 11:58:47;;;;;;;3.03;0.40;;;25.60;42.20;;;;;;5155679;27;20369;-83
2022/08/05 12:01:18;;;;;;;1.25;0.30;;;25.20;43.20;;;;;;5155496;27;20050;-82
2022/08/05 12:03:51;;;;;;;1.27;0.30;;;25.10;43.90;;;;;;5155225;27;20053;-82
2022/08/05 12:06:22;;;;;;;3.88;0.40;;;25.30;45.40;;;;;;5155035;27;20134;-82
2022/08/05 12:08:50;;;;;;;2.53;0.40;;;25.20;44.70;;;;;;5137306;27;20081;-83
2022/08/05 12:11:21;;;;;;;0.68;0.28;;;25.20;45.90;;;;;;5136770;27;20133;-83
2022/08/05 12:14:03;;;;;;;1.40;0.60;;;25.80;46.10;;;;;;5136735;27;20046;-82
2022/08/05 12:16:34;;;;;;;2.38;0.30;;;26.30;46.10;;;;;;5155189;27;20057;-81
2022/08/05 12:19:00;;;;;;;1.10;0.30;;;26.70;45.10;;;;;;5155101;27;20042;-86
2022/08/05 12:21:27;;;;;;;3.85;0.40;;;26.40;44.70;;;;;;5137023;27;20042;-85
2022/08/05 12:24:00;;;;;;;1.00;0.22;;;26.00;46.20;;;;;;5136731;27;20399;-82
2022/08/05 12:26:39;;;;;;;1.30;0.30;;;26.10;46.10;;;;;;5136702;27;20054;-83
2022/08/05 12:29:07;;;;;;;0.65;0.30;;;25.90;45.80;;;;;;5154965;27;20047;-85
2022/08/05 12:31:33;;;;;;;1.95;0.50;;;25.60;46.10;;;;;;5136751;27;20039;-83
2022/08/05 12:34:06;;;;;;;1.52;0.30;;;25.30;46.30;;;;;;5119230;27;20047;-86
2022/08/05 12:36:33;;;;;;;0.60;0.20;;;25.30;46.90;;;;;;5119306;27;20055;-84
2022/08/05 12:39:00;;;;;;;4.85;0.50;;;24.90;49.10;;;;;;5154935;27;20054;-83
2022/08/05 12:41:33;;;;;;;1.13;0.20;;;24.70;49.10;;;;;;5155055;27;20047;-83
2022/08/05 12:44:08;;;;;;;2.53;0.35;;;24.50;48.20;;;;;;5154787;27;20042;-83
2022/08/05 12:46:36;;;;;;;1.95;0.50;;;24.20;48.70;;;;;;5119045;27;20043;-81
2022/08/05 12:49:07;;;;;;;2.80;0.55;;;24.00;50.20;;;;;;5154713;27;20046;-80
2022/08/05 12:52:03;;;;;;;3.92;0.50;;;24.10;50.60;;;;;;5136440;27;20047;-83
2022/08/05 12:54:30;;;;;;;0.73;0.30;;;24.00;49.00;;;;;;5049901;28;20045;-80
2022/08/05 12:57:01;;;;;;;4.03;0.60;;;23.90;50.10;;;;;;5050330;28;20052;-83
2022/08/05 12:59:28;;;;;;;0.47;0.20;;;23.90;51.20;;;;;;5033982;28;20379;-82